sensor_id;sensor_type;location;lat;lon;timestamp;pressure;altitude;pressure_sealevel;temperature;humidity
52651;BME280;38537;47.226;39.702;2023-02-13T00:00:33;101057.44;;;-2.34;63.05
52651;BME280;38537;47.226;39.702;2023-02-13T00:03:01;101049.44;;;-2.49;62.77
52651;BME280;38537;47.226;39.702;2023-02-13T00:05:28;101042.28;;;-2.37;63.38
52651;BME280;38537;47.226;39.702;2023-02-13T00:07:55;101053.81;;;-2.55;62.77
52651;BME280;38537;47.226;39.702;2023-02-13T00:10:23;101079.91;;;-2.52;62.85
52651;BME280;38537;47.226;39.702;2023-02-13T00:12:50;101072.75;;;-2.53;63.80
52651;BME280;38537;47.226;39.702;2023-02-13T00:15:17;101072.53;;;-2.58;63.20
52651;BME280;38537;47.226;39.702;2023-02-13T00:17:44;101084.88;;;-2.76;63.22
52651;BME280;38537;47.226;39.702;2023-02-13T00:20:12;101062.56;;;-2.79;64.27
52651;BME280;38537;47.226;39.702;2023-02-13T00:22:40;101066.09;;;-2.92;64.12
52651;BME280;38537;47.226;39.702;2023-02-13T00:25:11;101048.84;;;-2.92;64.06
52651;BME280;38537;47.226;39.702;2023-02-13T00:27:38;101057.53;;;-2.82;64.00
52651;BME280;38537;47.226;39.702;2023-02-13T00:30:06;101077.94;;;-2.71;64.15
52651;BME280;38537;47.226;39.702;2023-02-13T00:32:33;101083.81;;;-2.74;63.82
52651;BME280;38537;47.226;39.702;2023-02-13T00:35:00;101082.41;;;-2.57;64.65
52651;BME280;38537;47.226;39.702;2023-02-13T00:37:29;101057.88;;;-2.31;63.77
52651;BME280;38537;47.226;39.702;2023-02-13T00:39:56;101067.41;;;-2.07;63.85
52651;BME280;38537;47.226;39.702;2023-02-13T00:42:23;101055.63;;;-2.08;63.15
52651;BME280;38537;47.226;39.702;2023-02-13T00:44:53;101092.84;;;-2.13;63.11
52651;BME280;38537;47.226;39.702;2023-02-13T00:47:22;101087.72;;;-2.49;62.82
52651;BME280;38537;47.226;39.702;2023-02-13T00:49:49;101082.81;;;-2.67;63.43
52651;BME280;38537;47.226;39.702;2023-02-13T00:52:16;101093.59;;;-2.52;63.80
52651;BME280;38537;47.226;39.702;2023-02-13T00:54:43;101094.47;;;-2.45;63.61
52651;BME280;38537;47.226;39.702;2023-02-13T00:57:11;101079.69;;;-2.57;63.05
52651;BME280;38537;47.226;39.702;2023-02-13T00:59:40;101080.31;;;-2.55;63.87
52651;BME280;38537;47.226;39.702;2023-02-13T01:02:08;101080.31;;;-2.62;63.58
52651;BME280;38537;47.226;39.702;2023-02-13T01:04:35;101083.63;;;-2.73;63.50
52651;BME280;38537;47.226;39.702;2023-02-13T01:07:02;101092.66;;;-2.72;63.38
52651;BME280;38537;47.226;39.702;2023-02-13T01:09:29;101053.91;;;-2.89;63.63
52651;BME280;38537;47.226;39.702;2023-02-13T01:11:57;101060.63;;;-2.92;64.20
52651;BME280;38537;47.226;39.702;2023-02-13T01:14:24;101057.66;;;-2.97;64.05
52651;BME280;38537;47.226;39.702;2023-02-13T01:16:51;101094.78;;;-2.68;64.30
52651;BME280;38537;47.226;39.702;2023-02-13T01:19:19;101114.97;;;-2.69;63.88
52651;BME280;38537;47.226;39.702;2023-02-13T01:21:46;101100.22;;;-2.74;63.40
52651;BME280;38537;47.226;39.702;2023-02-13T01:24:13;101079.94;;;-2.93;63.94
52651;BME280;38537;47.226;39.702;2023-02-13T01:26:40;101107.22;;;-2.65;64.07
52651;BME280;38537;47.226;39.702;2023-02-13T01:29:10;101092.66;;;-2.72;63.63
52651;BME280;38537;47.226;39.702;2023-02-13T01:31:38;101106.38;;;-2.59;63.06
52651;BME280;38537;47.226;39.702;2023-02-13T01:34:06;101102.81;;;-2.53;63.50
52651;BME280;38537;47.226;39.702;2023-02-13T01:36:33;101113.59;;;-2.45;62.80
52651;BME280;38537;47.226;39.702;2023-02-13T01:39:00;101113.34;;;-2.50;62.76
52651;BME280;38537;47.226;39.702;2023-02-13T01:41:28;101090.59;;;-2.57;63.08
52651;BME280;38537;47.226;39.702;2023-02-13T01:43:58;101124.13;;;-2.42;62.64
52651;BME280;38537;47.226;39.702;2023-02-13T01:46:36;101119.00;;;-2.58;62.54
52651;BME280;38537;47.226;39.702;2023-02-13T01:51:38;101124.25;;;-2.63;63.31
52651;BME280;38537;47.226;39.702;2023-02-13T01:54:15;101124.69;;;-2.53;63.23
52651;BME280;38537;47.226;39.702;2023-02-13T01:56:50;101109.47;;;-2.76;63.11
52651;BME280;38537;47.226;39.702;2023-02-13T01:59:30;101136.72;;;-2.48;62.84
52651;BME280;38537;47.226;39.702;2023-02-13T02:02:00;101102.72;;;-2.80;62.59
52651;BME280;38537;47.226;39.702;2023-02-13T02:04:32;101134.09;;;-2.69;62.85
52651;BME280;38537;47.226;39.702;2023-02-13T02:07:21;101135.31;;;-2.78;63.05
52651;BME280;38537;47.226;39.702;2023-02-13T02:09:53;101112.53;;;-2.92;62.98
52651;BME280;38537;47.226;39.702;2023-02-13T02:12:33;101129.19;;;-2.80;63.05
52651;BME280;38537;47.226;39.702;2023-02-13T02:15:06;101115.31;;;-2.79;63.21
52651;BME280;38537;47.226;39.702;2023-02-13T02:17:33;101123.75;;;-2.73;62.92
52651;BME280;38537;47.226;39.702;2023-02-13T02:23:15;101123.53;;;-2.79;62.96
52651;BME280;38537;47.226;39.702;2023-02-13T02:37:01;101150.03;;;-2.31;62.18
52651;BME280;38537;47.226;39.702;2023-02-13T02:45:34;101152.22;;;-1.94;61.47
52651;BME280;38537;47.226;39.702;2023-02-13T02:51:31;101169.19;;;-2.25;61.02
52651;BME280;38537;47.226;39.702;2023-02-13T02:54:08;101167.47;;;-2.32;61.63
52651;BME280;38537;47.226;39.702;2023-02-13T02:57:09;101148.41;;;-2.19;62.11
52651;BME280;38537;47.226;39.702;2023-02-13T02:59:42;101180.38;;;-2.20;61.30
52651;BME280;38537;47.226;39.702;2023-02-13T03:02:31;101145.63;;;-2.26;61.46
52651;BME280;38537;47.226;39.702;2023-02-13T03:05:31;101178.31;;;-2.04;61.04
52651;BME280;38537;47.226;39.702;2023-02-13T03:08:19;101153.19;;;-2.28;61.20
52651;BME280;38537;47.226;39.702;2023-02-13T03:11:06;101170.66;;;-2.29;61.34
52651;BME280;38537;47.226;39.702;2023-02-13T03:13:53;101159.28;;;-2.39;61.28
52651;BME280;38537;47.226;39.702;2023-02-13T03:16:23;101166.91;;;-2.21;61.92
52651;BME280;38537;47.226;39.702;2023-02-13T03:25:26;101189.28;;;-1.91;61.45
52651;BME280;38537;47.226;39.702;2023-02-13T03:34:05;101186.84;;;-1.53;60.33
52651;BME280;38537;47.226;39.702;2023-02-13T03:37:01;101183.06;;;-1.52;60.39
52651;BME280;38537;47.226;39.702;2023-02-13T03:40:00;101198.41;;;-1.64;60.34
52651;BME280;38537;47.226;39.702;2023-02-13T03:42:47;101184.06;;;-1.73;60.10
52651;BME280;38537;47.226;39.702;2023-02-13T03:45:26;101196.09;;;-1.74;60.13
52651;BME280;38537;47.226;39.702;2023-02-13T03:48:17;101200.06;;;-1.83;60.00
52651;BME280;38537;47.226;39.702;2023-02-13T03:51:06;101203.38;;;-1.94;60.47
52651;BME280;38537;47.226;39.702;2023-02-13T03:53:37;101195.94;;;-2.14;60.30
52651;BME280;38537;47.226;39.702;2023-02-13T03:56:06;101194.09;;;-2.07;60.58
52651;BME280;38537;47.226;39.702;2023-02-13T03:58:55;101205.25;;;-2.08;60.25
52651;BME280;38537;47.226;39.702;2023-02-13T04:02:00;101201.94;;;-1.97;60.64
52651;BME280;38537;47.226;39.702;2023-02-13T04:04:47;101214.31;;;-1.94;60.31
52651;BME280;38537;47.226;39.702;2023-02-13T04:07:18;101211.66;;;-1.81;60.26
52651;BME280;38537;47.226;39.702;2023-02-13T04:10:09;101206.56;;;-1.91;60.04
52651;BME280;38537;47.226;39.702;2023-02-13T04:12:55;101192.81;;;-2.11;60.26
52651;BME280;38537;47.226;39.702;2023-02-13T04:18:09;101224.91;;;-1.72;60.57
52651;BME280;38537;47.226;39.702;2023-02-13T04:20:40;101210.78;;;-1.95;60.16
52651;BME280;38537;47.226;39.702;2023-02-13T04:23:09;101219.38;;;-1.91;60.45
52651;BME280;38537;47.226;39.702;2023-02-13T04:25:38;101232.91;;;-1.83;60.30
52651;BME280;38537;47.226;39.702;2023-02-13T04:28:07;101225.06;;;-1.99;60.29
52651;BME280;38537;47.226;39.702;2023-02-13T04:30:34;101228.66;;;-1.92;60.20
52651;BME280;38537;47.226;39.702;2023-02-13T04:33:02;101225.72;;;-1.97;59.74
52651;BME280;38537;47.226;39.702;2023-02-13T04:35:29;101240.59;;;-2.07;60.32
52651;BME280;38537;47.226;39.702;2023-02-13T04:37:56;101218.22;;;-2.23;60.11
52651;BME280;38537;47.226;39.702;2023-02-13T04:40:24;101242.69;;;-2.09;60.22
52651;BME280;38537;47.226;39.702;2023-02-13T04:42:51;101249.50;;;-1.98;60.67
52651;BME280;38537;47.226;39.702;2023-02-13T04:45:18;101245.72;;;-1.90;60.72
52651;BME280;38537;47.226;39.702;2023-02-13T04:47:49;101247.91;;;-1.59;60.00
52651;BME280;38537;47.226;39.702;2023-02-13T04:50:19;101250.03;;;-1.48;59.58
52651;BME280;38537;47.226;39.702;2023-02-13T04:52:46;101241.59;;;-1.60;59.42
52651;BME280;38537;47.226;39.702;2023-02-13T04:55:16;101261.59;;;-1.66;59.53
52651;BME280;38537;47.226;39.702;2023-02-13T04:57:43;101255.50;;;-1.61;60.21
52651;BME280;38537;47.226;39.702;2023-02-13T05:00:11;101248.72;;;-1.72;59.54
52651;BME280;38537;47.226;39.702;2023-02-13T05:02:38;101236.50;;;-1.76;59.64
52651;BME280;38537;47.226;39.702;2023-02-13T05:05:05;101241.09;;;-1.83;59.59
52651;BME280;38537;47.226;39.702;2023-02-13T05:07:33;101250.00;;;-1.68;60.30
52651;BME280;38537;47.226;39.702;2023-02-13T05:10:00;101256.16;;;-1.53;59.86
52651;BME280;38537;47.226;39.702;2023-02-13T05:12:28;101233.09;;;-1.85;59.09
52651;BME280;38537;47.226;39.702;2023-02-13T05:14:56;101251.88;;;-1.75;59.87
52651;BME280;38537;47.226;39.702;2023-02-13T05:17:23;101246.81;;;-1.78;59.59
52651;BME280;38537;47.226;39.702;2023-02-13T05:19:53;101268.28;;;-1.82;59.75
52651;BME280;38537;47.226;39.702;2023-02-13T05:22:21;101240.22;;;-1.90;59.57
52651;BME280;38537;47.226;39.702;2023-02-13T05:25:07;101256.25;;;-1.87;60.32
52651;BME280;38537;47.226;39.702;2023-02-13T05:27:34;101248.59;;;-2.05;59.33
52651;BME280;38537;47.226;39.702;2023-02-13T05:30:01;101266.56;;;-1.96;59.75
52651;BME280;38537;47.226;39.702;2023-02-13T05:32:30;101245.81;;;-2.18;59.74
52651;BME280;38537;47.226;39.702;2023-02-13T05:34:57;101270.16;;;-1.82;59.79
52651;BME280;38537;47.226;39.702;2023-02-13T05:37:24;101277.25;;;-2.01;59.26
52651;BME280;38537;47.226;39.702;2023-02-13T05:39:51;101284.44;;;-1.93;59.62
52651;BME280;38537;47.226;39.702;2023-02-13T05:42:18;101297.38;;;-2.15;59.67
52651;BME280;38537;47.226;39.702;2023-02-13T05:44:45;101291.47;;;-2.19;59.34
52651;BME280;38537;47.226;39.702;2023-02-13T05:47:13;101300.09;;;-2.15;59.12
52651;BME280;38537;47.226;39.702;2023-02-13T05:49:40;101295.91;;;-2.18;60.06
52651;BME280;38537;47.226;39.702;2023-02-13T05:52:07;101310.63;;;-2.19;59.51
52651;BME280;38537;47.226;39.702;2023-02-13T05:54:34;101308.28;;;-2.22;59.47
52651;BME280;38537;47.226;39.702;2023-02-13T05:57:01;101314.78;;;-1.88;59.73
52651;BME280;38537;47.226;39.702;2023-02-13T05:59:29;101313.31;;;-1.84;58.99
52651;BME280;38537;47.226;39.702;2023-02-13T06:01:56;101308.16;;;-2.07;58.45
52651;BME280;38537;47.226;39.702;2023-02-13T06:04:23;101320.94;;;-2.21;58.98
52651;BME280;38537;47.226;39.702;2023-02-13T06:06:50;101288.97;;;-2.48;58.81
52651;BME280;38537;47.226;39.702;2023-02-13T06:09:17;101294.31;;;-2.33;59.68
52651;BME280;38537;47.226;39.702;2023-02-13T06:11:45;101320.34;;;-2.10;59.63
52651;BME280;38537;47.226;39.702;2023-02-13T06:14:12;101320.19;;;-2.01;59.32
52651;BME280;38537;47.226;39.702;2023-02-13T06:16:40;101285.19;;;-2.13;59.34
52651;BME280;38537;47.226;39.702;2023-02-13T06:19:08;101293.69;;;-2.01;59.28
52651;BME280;38537;47.226;39.702;2023-02-13T06:21:35;101308.00;;;-1.99;59.08
52651;BME280;38537;47.226;39.702;2023-02-13T06:24:05;101319.03;;;-1.79;59.12
52651;BME280;38537;47.226;39.702;2023-02-13T06:26:33;101303.88;;;-1.82;58.83
52651;BME280;38537;47.226;39.702;2023-02-13T06:29:00;101303.09;;;-1.62;59.43
52651;BME280;38537;47.226;39.702;2023-02-13T06:31:28;101303.47;;;-1.72;59.26
52651;BME280;38537;47.226;39.702;2023-02-13T06:33:55;101309.00;;;-1.59;59.36
52651;BME280;38537;47.226;39.702;2023-02-13T06:36:22;101318.25;;;-1.60;59.03
52651;BME280;38537;47.226;39.702;2023-02-13T06:38:49;101318.72;;;-1.56;58.60
52651;BME280;38537;47.226;39.702;2023-02-13T06:41:16;101307.69;;;-1.76;58.56
52651;BME280;38537;47.226;39.702;2023-02-13T06:43:43;101325.00;;;-1.62;59.01
52651;BME280;38537;47.226;39.702;2023-02-13T06:46:10;101327.69;;;-1.69;58.46
52651;BME280;38537;47.226;39.702;2023-02-13T06:48:38;101298.44;;;-1.68;58.79
52651;BME280;38537;47.226;39.702;2023-02-13T06:51:06;101307.97;;;-1.58;59.00
52651;BME280;38537;47.226;39.702;2023-02-13T06:53:33;101324.81;;;-1.48;58.59
52651;BME280;38537;47.226;39.702;2023-02-13T06:56:03;101316.19;;;-1.45;58.98
52651;BME280;38537;47.226;39.702;2023-02-13T06:58:32;101307.56;;;-1.42;58.70
52651;BME280;38537;47.226;39.702;2023-02-13T07:01:00;101337.78;;;-1.15;58.34
52651;BME280;38537;47.226;39.702;2023-02-13T07:03:27;101320.03;;;-1.26;57.79
52651;BME280;38537;47.226;39.702;2023-02-13T07:05:54;101326.31;;;-1.45;57.87
52651;BME280;38537;47.226;39.702;2023-02-13T07:08:22;101325.47;;;-1.52;57.84
52651;BME280;38537;47.226;39.702;2023-02-13T07:10:49;101309.56;;;-1.70;57.67
52651;BME280;38537;47.226;39.702;2023-02-13T07:13:16;101311.06;;;-1.67;58.14
52651;BME280;38537;47.226;39.702;2023-02-13T07:15:43;101300.97;;;-1.74;57.75
52651;BME280;38537;47.226;39.702;2023-02-13T07:18:11;101333.16;;;-1.69;57.84
52651;BME280;38537;47.226;39.702;2023-02-13T07:20:38;101323.28;;;-1.70;57.85
52651;BME280;38537;47.226;39.702;2023-02-13T07:23:05;101323.31;;;-1.63;57.89
52651;BME280;38537;47.226;39.702;2023-02-13T07:25:33;101343.91;;;-1.74;58.24
52651;BME280;38537;47.226;39.702;2023-02-13T07:28:02;101321.94;;;-1.87;58.12
52651;BME280;38537;47.226;39.702;2023-02-13T07:30:31;101328.38;;;-1.60;58.48
52651;BME280;38537;47.226;39.702;2023-02-13T07:33:01;101319.50;;;-1.62;58.07
52651;BME280;38537;47.226;39.702;2023-02-13T07:35:28;101322.69;;;-1.59;58.79
52651;BME280;38537;47.226;39.702;2023-02-13T07:37:55;101330.09;;;-1.46;58.07
52651;BME280;38537;47.226;39.702;2023-02-13T07:40:22;101314.53;;;-1.39;57.82
52651;BME280;38537;47.226;39.702;2023-02-13T07:42:50;101342.38;;;-1.35;57.65
52651;BME280;38537;47.226;39.702;2023-02-13T07:45:17;101301.03;;;-1.54;57.96
52651;BME280;38537;47.226;39.702;2023-02-13T07:47:44;101324.63;;;-1.46;57.66
52651;BME280;38537;47.226;39.702;2023-02-13T07:50:12;101334.06;;;-1.62;57.10
52651;BME280;38537;47.226;39.702;2023-02-13T07:52:39;101365.28;;;-1.43;57.43
52651;BME280;38537;47.226;39.702;2023-02-13T07:55:07;101345.03;;;-1.55;57.28
52651;BME280;38537;47.226;39.702;2023-02-13T07:57:34;101359.59;;;-1.48;57.50
52651;BME280;38537;47.226;39.702;2023-02-13T08:00:02;101359.22;;;-1.39;57.56
52651;BME280;38537;47.226;39.702;2023-02-13T08:02:37;101377.56;;;-1.26;57.09
52651;BME280;38537;47.226;39.702;2023-02-13T08:05:05;101380.88;;;-1.44;56.66
52651;BME280;38537;47.226;39.702;2023-02-13T08:07:33;101375.19;;;-1.42;56.93
52651;BME280;38537;47.226;39.702;2023-02-13T08:10:01;101391.66;;;-1.29;56.45
52651;BME280;38537;47.226;39.702;2023-02-13T08:12:47;101378.50;;;-1.60;56.47
52651;BME280;38537;47.226;39.702;2023-02-13T08:15:14;101405.59;;;-1.78;57.10
52651;BME280;38537;47.226;39.702;2023-02-13T08:17:42;101387.22;;;-1.84;57.39
52651;BME280;38537;47.226;39.702;2023-02-13T08:20:10;101374.34;;;-2.25;56.81
52651;BME280;38537;47.226;39.702;2023-02-13T08:22:38;101392.31;;;-2.09;58.18
52651;BME280;38537;47.226;39.702;2023-02-13T08:25:05;101395.16;;;-1.96;57.87
52651;BME280;38537;47.226;39.702;2023-02-13T08:27:34;101380.50;;;-1.82;57.76
52651;BME280;38537;47.226;39.702;2023-02-13T08:30:02;101373.78;;;-1.79;57.66
52651;BME280;38537;47.226;39.702;2023-02-13T08:32:30;101376.81;;;-1.61;57.84
52651;BME280;38537;47.226;39.702;2023-02-13T08:35:17;101408.06;;;-1.42;56.99
52651;BME280;38537;47.226;39.702;2023-02-13T08:37:44;101406.00;;;-1.27;57.14
52651;BME280;38537;47.226;39.702;2023-02-13T08:40:13;101411.13;;;-1.17;56.54
52651;BME280;38537;47.226;39.702;2023-02-13T08:42:40;101399.66;;;-1.41;56.45
52651;BME280;38537;47.226;39.702;2023-02-13T08:45:08;101395.94;;;-1.67;56.54
52651;BME280;38537;47.226;39.702;2023-02-13T08:47:38;101376.53;;;-1.73;56.97
52651;BME280;38537;47.226;39.702;2023-02-13T08:50:06;101390.66;;;-1.69;57.04
52651;BME280;38537;47.226;39.702;2023-02-13T08:52:33;101395.81;;;-1.53;57.24
52651;BME280;38537;47.226;39.702;2023-02-13T08:55:01;101371.19;;;-1.53;57.16
52651;BME280;38537;47.226;39.702;2023-02-13T08:57:29;101395.47;;;-1.36;56.65
52651;BME280;38537;47.226;39.702;2023-02-13T08:59:57;101396.66;;;-1.46;56.77
52651;BME280;38537;47.226;39.702;2023-02-13T09:02:24;101388.72;;;-1.34;56.25
52651;BME280;38537;47.226;39.702;2023-02-13T09:04:52;101395.50;;;-1.30;56.37
52651;BME280;38537;47.226;39.702;2023-02-13T09:07:19;101388.91;;;-1.42;56.43
52651;BME280;38537;47.226;39.702;2023-02-13T09:09:46;101386.22;;;-1.22;56.74
52651;BME280;38537;47.226;39.702;2023-02-13T09:12:13;101378.25;;;-1.17;56.42
52651;BME280;38537;47.226;39.702;2023-02-13T09:14:40;101401.66;;;-1.08;56.30
52651;BME280;38537;47.226;39.702;2023-02-13T09:17:08;101384.53;;;-1.23;56.06
52651;BME280;38537;47.226;39.702;2023-02-13T09:19:35;101404.13;;;-1.26;55.96
52651;BME280;38537;47.226;39.702;2023-02-13T09:22:02;101387.00;;;-1.42;56.24
52651;BME280;38537;47.226;39.702;2023-02-13T09:24:30;101372.16;;;-1.67;56.11
52651;BME280;38537;47.226;39.702;2023-02-13T09:26:57;101386.97;;;-1.55;56.50
52651;BME280;38537;47.226;39.702;2023-02-13T09:29:24;101393.28;;;-1.48;56.56
52651;BME280;38537;47.226;39.702;2023-02-13T09:31:56;101371.41;;;-1.41;56.57
52651;BME280;38537;47.226;39.702;2023-02-13T09:34:23;101369.31;;;-1.39;56.38
52651;BME280;38537;47.226;39.702;2023-02-13T09:36:52;101387.03;;;-1.35;56.53
52651;BME280;38537;47.226;39.702;2023-02-13T09:39:19;101378.50;;;-1.60;56.26
52651;BME280;38537;47.226;39.702;2023-02-13T09:41:49;101394.69;;;-1.65;56.38
52651;BME280;38537;47.226;39.702;2023-02-13T09:47:27;101392.19;;;-1.60;57.46
52651;BME280;38537;47.226;39.702;2023-02-13T09:49:59;101388.09;;;-1.36;57.39
52651;BME280;38537;47.226;39.702;2023-02-13T09:52:33;101386.88;;;-1.20;57.29
52651;BME280;38537;47.226;39.702;2023-02-13T09:55:03;101382.47;;;-1.08;56.59
52651;BME280;38537;47.226;39.702;2023-02-13T09:57:42;101371.72;;;-1.03;56.22
52651;BME280;38537;47.226;39.702;2023-02-13T10:00:18;101372.56;;;-1.02;56.19
52651;BME280;38537;47.226;39.702;2023-02-13T10:06:28;101389.53;;;-0.53;56.14
52651;BME280;38537;47.226;39.702;2023-02-13T10:11:58;101375.38;;;-0.30;55.54
52651;BME280;38537;47.226;39.702;2023-02-13T10:14:40;101368.41;;;-0.39;55.40
52651;BME280;38537;47.226;39.702;2023-02-13T10:20:09;101354.69;;;-0.39;54.67
52651;BME280;38537;47.226;39.702;2023-02-13T10:22:50;101367.97;;;-0.16;55.04
52651;BME280;38537;47.226;39.702;2023-02-13T10:25:24;101377.25;;;-0.11;54.94
52651;BME280;38537;47.226;39.702;2023-02-13T10:27:59;101377.47;;;-0.12;54.78
52651;BME280;38537;47.226;39.702;2023-02-13T10:30:35;101354.88;;;-0.21;54.37
52651;BME280;38537;47.226;39.702;2023-02-13T10:33:29;101343.28;;;-0.23;54.65
52651;BME280;38537;47.226;39.702;2023-02-13T10:38:31;101365.84;;;-0.21;54.07
52651;BME280;38537;47.226;39.702;2023-02-13T10:46:48;101368.19;;;-0.57;53.23
52651;BME280;38537;47.226;39.702;2023-02-13T10:58:19;101376.84;;;-0.74;53.70
52651;BME280;38537;47.226;39.702;2023-02-13T11:01:06;101403.97;;;-1.05;54.03
52651;BME280;38537;47.226;39.702;2023-02-13T11:03:35;101368.56;;;-1.00;54.16
52651;BME280;38537;47.226;39.702;2023-02-13T11:06:06;101350.81;;;-1.24;54.69
52651;BME280;38537;47.226;39.702;2023-02-13T11:08:42;101371.47;;;-1.21;54.56
52651;BME280;38537;47.226;39.702;2023-02-13T11:11:29;101354.22;;;-1.15;54.91
52651;BME280;38537;47.226;39.702;2023-02-13T11:14:18;101351.25;;;-1.07;55.23
52651;BME280;38537;47.226;39.702;2023-02-13T11:19:49;101376.22;;;-0.76;54.43
52651;BME280;38537;47.226;39.702;2023-02-13T11:25:25;101385.06;;;-0.74;54.33
52651;BME280;38537;47.226;39.702;2023-02-13T11:28:10;101368.41;;;-0.72;54.41
52651;BME280;38537;47.226;39.702;2023-02-13T11:30:42;101361.88;;;-0.78;54.33
52651;BME280;38537;47.226;39.702;2023-02-13T11:33:22;101385.72;;;-0.72;54.54
52651;BME280;38537;47.226;39.702;2023-02-13T11:36:06;101356.16;;;-0.63;54.63
52651;BME280;38537;47.226;39.702;2023-02-13T11:38:34;101369.91;;;-0.50;54.28
52651;BME280;38537;47.226;39.702;2023-02-13T11:41:10;101367.38;;;-0.51;54.01
52651;BME280;38537;47.226;39.702;2023-02-13T11:43:49;101335.31;;;-0.51;54.31
52651;BME280;38537;47.226;39.702;2023-02-13T11:46:24;101361.25;;;-0.47;54.29
52651;BME280;38537;47.226;39.702;2023-02-13T11:49:03;101343.28;;;-0.29;54.43
52651;BME280;38537;47.226;39.702;2023-02-13T11:54:32;101341.78;;;-0.12;54.00
52651;BME280;38537;47.226;39.702;2023-02-13T11:59:43;101344.94;;;-0.09;53.62
52651;BME280;38537;47.226;39.702;2023-02-13T12:04:48;101340.47;;;0.04;53.47
52651;BME280;38537;47.226;39.702;2023-02-13T12:07:22;101343.63;;;0.14;53.40
52651;BME280;38537;47.226;39.702;2023-02-13T12:10:19;101357.31;;;0.27;53.63
52651;BME280;38537;47.226;39.702;2023-02-13T12:12:52;101379.53;;;0.06;53.15
52651;BME280;38537;47.226;39.702;2023-02-13T12:15:24;101366.50;;;-0.06;53.06
52651;BME280;38537;47.226;39.702;2023-02-13T12:18:14;101368.59;;;-0.08;52.67
52651;BME280;38537;47.226;39.702;2023-02-13T12:21:00;101353.81;;;-0.13;53.17
52651;BME280;38537;47.226;39.702;2023-02-13T12:26:40;101362.66;;;0.09;52.95
52651;BME280;38537;47.226;39.702;2023-02-13T12:29:45;101366.66;;;0.19;52.59
52651;BME280;38537;47.226;39.702;2023-02-13T12:37:40;101350.53;;;0.36;52.75
52651;BME280;38537;47.226;39.702;2023-02-13T12:40:42;101365.25;;;0.55;52.49
52651;BME280;38537;47.226;39.702;2023-02-13T12:46:05;101337.53;;;0.56;52.85
52651;BME280;38537;47.226;39.702;2023-02-13T12:49:19;101354.22;;;0.61;52.48
52651;BME280;38537;47.226;39.702;2023-02-13T12:51:50;101364.28;;;0.81;52.64
52651;BME280;38537;47.226;39.702;2023-02-13T12:54:33;101358.50;;;0.89;52.17
52651;BME280;38537;47.226;39.702;2023-02-13T13:03:16;101333.47;;;1.03;51.91
52651;BME280;38537;47.226;39.702;2023-02-13T13:06:12;101351.13;;;1.21;51.69
52651;BME280;38537;47.226;39.702;2023-02-13T13:17:00;101334.94;;;1.06;51.13
52651;BME280;38537;47.226;39.702;2023-02-13T13:25:17;101347.56;;;1.14;51.35
52651;BME280;38537;47.226;39.702;2023-02-13T13:27:49;101341.53;;;0.98;50.98
52651;BME280;38537;47.226;39.702;2023-02-13T13:30:28;101340.44;;;1.06;51.06
52651;BME280;38537;47.226;39.702;2023-02-13T13:38:24;101344.81;;;1.14;50.37
52651;BME280;38537;47.226;39.702;2023-02-13T13:41:04;101362.16;;;1.14;50.76
52651;BME280;38537;47.226;39.702;2023-02-13T13:44:08;101349.84;;;1.23;50.88
52651;BME280;38537;47.226;39.702;2023-02-13T13:49:51;101336.06;;;1.23;50.70
52651;BME280;38537;47.226;39.702;2023-02-13T13:52:34;101344.16;;;1.43;51.08
52651;BME280;38537;47.226;39.702;2023-02-13T13:58:25;101326.66;;;1.62;51.05
52651;BME280;38537;47.226;39.702;2023-02-13T14:01:36;101350.03;;;1.96;51.35
52651;BME280;38537;47.226;39.702;2023-02-13T14:09:41;101355.81;;;2.31;51.11
52651;BME280;38537;47.226;39.702;2023-02-13T14:14:56;101334.19;;;2.47;50.75
52651;BME280;38537;47.226;39.702;2023-02-13T14:20:39;101345.31;;;2.58;50.33
52651;BME280;38537;47.226;39.702;2023-02-13T14:25:47;101343.47;;;2.34;48.36
52651;BME280;38537;47.226;39.702;2023-02-13T14:28:33;101355.13;;;2.36;49.51
52651;BME280;38537;47.226;39.702;2023-02-13T14:31:04;101350.88;;;2.52;50.18
52651;BME280;38537;47.226;39.702;2023-02-13T14:33:33;101350.06;;;2.33;49.02
52651;BME280;38537;47.226;39.702;2023-02-13T14:36:22;101360.06;;;2.46;49.64
52651;BME280;38537;47.226;39.702;2023-02-13T14:39:00;101358.47;;;2.56;50.12
52651;BME280;38537;47.226;39.702;2023-02-13T14:41:42;101351.47;;;2.72;49.60
52651;BME280;38537;47.226;39.702;2023-02-13T14:44:17;101359.38;;;2.98;50.79
52651;BME280;38537;47.226;39.702;2023-02-13T14:46:48;101359.31;;;2.87;50.11
52651;BME280;38537;47.226;39.702;2023-02-13T14:49:22;101341.06;;;2.74;49.22
52651;BME280;38537;47.226;39.702;2023-02-13T14:52:04;101352.22;;;3.09;49.73
52651;BME280;38537;47.226;39.702;2023-02-13T14:54:38;101363.41;;;3.26;49.61
52651;BME280;38537;47.226;39.702;2023-02-13T14:57:38;101368.53;;;3.40;48.80
52651;BME280;38537;47.226;39.702;2023-02-13T15:00:27;101344.31;;;3.13;49.33
52651;BME280;38537;47.226;39.702;2023-02-13T15:03:07;101361.88;;;3.30;49.84
52651;BME280;38537;47.226;39.702;2023-02-13T15:05:38;101359.97;;;3.30;50.07
52651;BME280;38537;47.226;39.702;2023-02-13T15:08:14;101369.59;;;3.39;49.35
52651;BME280;38537;47.226;39.702;2023-02-13T15:10:45;101371.84;;;3.31;49.69
52651;BME280;38537;47.226;39.702;2023-02-13T15:13:25;101355.09;;;3.44;49.93
52651;BME280;38537;47.226;39.702;2023-02-13T15:16:02;101370.97;;;3.72;49.44
52651;BME280;38537;47.226;39.702;2023-02-13T15:21:14;101364.84;;;3.70;50.23
52651;BME280;38537;47.226;39.702;2023-02-13T15:23:43;101372.25;;;3.46;49.90
52651;BME280;38537;47.226;39.702;2023-02-13T15:26:18;101358.81;;;3.50;49.77
52651;BME280;38537;47.226;39.702;2023-02-13T15:29:01;101359.53;;;3.68;50.24
52651;BME280;38537;47.226;39.702;2023-02-13T15:31:31;101359.06;;;3.60;50.19
52651;BME280;38537;47.226;39.702;2023-02-13T15:34:00;101333.00;;;3.56;49.90
52651;BME280;38537;47.226;39.702;2023-02-13T15:36:34;101336.63;;;3.68;50.24